createdAt,value
2019-05-07T00:01:06.691Z,6.64
2019-05-07T00:03:36.168Z,6.57
2019-05-07T00:06:05.754Z,6.59
2019-05-07T00:08:35.277Z,6.57
2019-05-07T00:11:04.772Z,6.58
2019-05-07T00:13:34.224Z,6.58
2019-05-07T00:16:03.690Z,6.57
2019-05-07T00:18:33.177Z,6.56
2019-05-07T00:21:03.509Z,6.49
2019-05-07T00:23:33.143Z,6.41
2019-05-07T00:26:03.736Z,6.46
2019-05-07T00:28:33.182Z,6.44
2019-05-07T00:31:03.015Z,6.45
2019-05-07T00:33:33.620Z,6.44
2019-05-07T00:36:28.451Z,6.39
2019-05-07T00:39:12.401Z,6.38
2019-05-07T00:41:52.226Z,6.41
2019-05-07T00:44:22.335Z,6.46
2019-05-07T00:46:53.538Z,6.38
2019-05-07T00:49:25.063Z,6.36
2019-05-07T00:51:54.521Z,6.26
2019-05-07T00:54:24.001Z,6.32
2019-05-07T00:56:53.507Z,6.38
2019-05-07T00:59:22.971Z,6.31
2019-05-07T01:01:52.894Z,6.29
2019-05-07T01:04:23.050Z,6.40
2019-05-07T01:06:53.554Z,6.43
2019-05-07T01:09:23.115Z,6.43
2019-05-07T01:11:52.670Z,6.44
2019-05-07T01:14:22.887Z,6.50
2019-05-07T01:16:53.014Z,6.50
2019-05-07T01:19:22.505Z,6.48
2019-05-07T01:21:52.595Z,6.46
2019-05-07T01:24:23.235Z,6.51
2019-05-07T01:26:53.154Z,6.50
2019-05-07T01:29:22.758Z,6.53
2019-05-07T01:31:58.308Z,6.43
2019-05-07T01:34:43.027Z,6.36
2019-05-07T01:37:12.599Z,6.48
2019-05-07T01:39:42.276Z,6.60
2019-05-07T01:42:12.776Z,6.67
2019-05-07T01:44:42.339Z,6.70
2019-05-07T01:47:13.044Z,6.70
2019-05-07T01:49:42.694Z,6.79
2019-05-07T01:52:13.324Z,6.76
2019-05-07T01:54:43.114Z,6.74
2019-05-07T01:57:12.582Z,6.66
2019-05-07T01:59:42.761Z,6.65
2019-05-07T02:02:34.086Z,6.64
2019-05-07T02:05:15.324Z,6.63
2019-05-07T02:07:52.144Z,6.55
2019-05-07T02:10:39.443Z,6.47
2019-05-07T02:13:08.928Z,6.38
2019-05-07T02:15:38.405Z,6.49
2019-05-07T02:18:07.912Z,6.57
2019-05-07T02:20:37.739Z,6.62
2019-05-07T02:23:07.230Z,6.72
2019-05-07T02:25:36.720Z,6.77
2019-05-07T02:28:06.192Z,6.70
2019-05-07T02:30:35.640Z,6.69
2019-05-07T02:33:05.103Z,6.74
2019-05-07T02:35:34.621Z,6.63
2019-05-07T02:38:18.444Z,6.63
2019-05-07T02:40:53.470Z,6.62
2019-05-07T02:43:23.331Z,6.60
2019-05-07T02:46:21.448Z,6.56
2019-05-07T02:48:42.591Z,6.52
2019-05-07T02:51:23.964Z,6.63
2019-05-07T02:54:13.353Z,6.72
2019-05-07T02:56:43.424Z,6.72
2019-05-07T02:59:13.696Z,6.60
2019-05-07T03:01:43.694Z,6.55
2019-05-07T03:04:13.227Z,6.49
2019-05-07T03:06:44.273Z,6.36
2019-05-07T03:09:14.777Z,6.25
2019-05-07T03:11:44.340Z,6.17
2019-05-07T03:14:14.339Z,6.15
2019-05-07T03:16:48.915Z,6.16
2019-05-07T03:19:15.483Z,6.17
2019-05-07T03:21:55.022Z,6.20
2019-05-07T03:24:46.941Z,6.20
2019-05-07T03:27:16.429Z,6.24
2019-05-07T03:29:53.716Z,6.16
2019-05-07T03:32:37.931Z,6.17
2019-05-07T03:35:38.303Z,6.30
2019-05-07T03:38:07.972Z,6.38
2019-05-07T03:40:37.648Z,6.44
2019-05-07T03:43:07.107Z,6.44
2019-05-07T03:45:55.529Z,6.54
2019-05-07T03:48:26.492Z,6.49
2019-05-07T03:50:55.937Z,6.53
2019-05-07T03:53:25.434Z,6.47
2019-05-07T03:55:54.937Z,6.55
2019-05-07T03:58:24.397Z,6.59
2019-05-07T04:00:54.102Z,6.62
2019-05-07T04:03:24.758Z,6.66
2019-05-07T04:05:54.625Z,6.69
2019-05-07T04:08:24.191Z,6.71
2019-05-07T04:10:54.216Z,6.82
2019-05-07T04:13:24.543Z,7.03
2019-05-07T04:15:54.278Z,7.05
2019-05-07T04:18:24.106Z,7.07
2019-05-07T04:20:54.145Z,7.06
2019-05-07T04:23:23.842Z,7.05
2019-05-07T04:26:15.793Z,7.04
2019-05-07T04:28:54.131Z,7.13
2019-05-07T04:31:25.611Z,7.14
2019-05-07T04:33:56.939Z,7.10
2019-05-07T04:36:28.772Z,7.05
2019-05-07T04:38:58.284Z,7.09
2019-05-07T04:41:27.778Z,7.09
2019-05-07T04:44:03.447Z,7.09
2019-05-07T04:46:33.405Z,7.02
2019-05-07T04:49:03.908Z,7.01
2019-05-07T04:51:53.125Z,7.02
2019-05-07T04:54:23.753Z,7.12
2019-05-07T04:56:53.591Z,7.27
2019-05-07T04:59:23.768Z,7.29
2019-05-07T05:02:06.955Z,7.35
2019-05-07T05:04:36.428Z,7.32
2019-05-07T05:07:05.914Z,7.39
2019-05-07T05:09:35.385Z,7.45
2019-05-07T05:12:04.898Z,7.48
2019-05-07T05:14:34.365Z,7.54
2019-05-07T05:17:03.868Z,7.57
2019-05-07T05:19:33.355Z,7.52
2019-05-07T05:22:24.879Z,7.61
2019-05-07T05:25:28.357Z,7.66
2019-05-07T05:27:57.841Z,7.58
2019-05-07T05:30:45.804Z,7.64
2019-05-07T05:33:15.367Z,7.81
2019-05-07T05:35:44.945Z,7.91
2019-05-07T05:38:14.442Z,7.99
2019-05-07T05:40:43.950Z,7.92
2019-05-07T05:43:23.343Z,8.01
2019-05-07T05:45:54.519Z,7.94
2019-05-07T05:48:24.060Z,7.66
2019-05-07T05:51:15.557Z,7.44
2019-05-07T05:53:52.946Z,7.19
2019-05-07T05:56:32.406Z,6.91
2019-05-07T05:59:47.422Z,6.89
2019-05-07T06:02:32.547Z,6.95
2019-05-07T06:05:36.101Z,6.98
2019-05-07T06:08:32.575Z,7.06
2019-05-07T06:11:23.715Z,7.13
2019-05-07T06:14:02.725Z,7.11
2019-05-07T06:16:36.800Z,7.15
2019-05-07T06:19:17.504Z,7.10
2019-05-07T06:22:04.754Z,7.20
2019-05-07T06:24:48.036Z,7.38
2019-05-07T06:27:17.519Z,7.44
2019-05-07T06:29:46.985Z,7.07
2019-05-07T06:32:18.160Z,7.07
2019-05-07T06:34:47.646Z,7.08
2019-05-07T06:37:17.221Z,7.13
2019-05-07T06:39:53.445Z,7.14
2019-05-07T06:43:00.205Z,7.21
2019-05-07T06:45:35.315Z,7.29
2019-05-07T06:48:04.387Z,7.38
2019-05-07T06:50:33.901Z,7.32
2019-05-07T06:53:03.362Z,7.19
2019-05-07T06:55:32.973Z,7.29
2019-05-07T06:58:03.148Z,7.33
2019-05-07T07:00:52.620Z,7.35
2019-05-07T07:03:41.983Z,7.44
2019-05-07T07:06:20.373Z,7.39
2019-05-07T07:09:08.791Z,7.47
2019-05-07T07:11:44.513Z,7.46
2019-05-07T07:14:14.016Z,7.49
2019-05-07T07:16:43.906Z,7.48
2019-05-07T07:19:13.384Z,7.34
2019-05-07T07:21:42.865Z,7.35
2019-05-07T07:24:12.782Z,7.35
2019-05-07T07:26:42.399Z,7.28
2019-05-07T07:29:13.678Z,7.51
2019-05-07T07:31:48.025Z,7.54
2019-05-07T07:34:17.810Z,7.44
2019-05-07T07:37:09.758Z,7.30
2019-05-07T07:39:36.321Z,7.29
2019-05-07T07:42:06.472Z,7.36
2019-05-07T07:44:35.992Z,7.55
2019-05-07T07:47:05.566Z,7.77
2019-05-07T07:49:35.067Z,7.73
2019-05-07T07:52:04.664Z,7.61
2019-05-07T07:54:34.205Z,7.67
2019-05-07T07:57:21.693Z,7.57
2019-05-07T08:00:11.796Z,7.44
2019-05-07T08:02:47.153Z,7.39
2019-05-07T08:05:16.639Z,7.25
2019-05-07T08:07:46.114Z,7.27
2019-05-07T08:10:15.840Z,7.33
2019-05-07T08:12:45.721Z,7.55
2019-05-07T08:15:20.875Z,7.46
2019-05-07T08:17:46.465Z,7.29
2019-05-07T08:20:16.448Z,7.41
2019-05-07T08:22:45.955Z,7.51
2019-05-07T08:25:15.854Z,7.37
2019-05-07T08:27:45.381Z,7.28
2019-05-07T08:30:19.121Z,7.42
2019-05-07T08:33:02.254Z,7.43
2019-05-07T08:35:41.999Z,7.53
2019-05-07T08:38:12.742Z,7.61
2019-05-07T08:40:42.547Z,7.62
2019-05-07T08:43:12.677Z,7.58
2019-05-07T08:46:11.972Z,7.55
2019-05-07T08:48:45.391Z,7.63
2019-05-07T08:51:14.853Z,7.44
2019-05-07T08:53:44.342Z,7.40
2019-05-07T08:56:13.907Z,7.60
2019-05-07T08:58:43.656Z,7.50
2019-05-07T09:01:13.156Z,7.54
2019-05-07T09:03:43.159Z,7.78
2019-05-07T09:06:14.272Z,7.79
2019-05-07T09:08:43.807Z,7.73
2019-05-07T09:11:13.512Z,7.78
2019-05-07T09:13:43.024Z,7.74
2019-05-07T09:16:13.084Z,7.90
2019-05-07T09:18:42.678Z,7.85
2019-05-07T09:21:12.669Z,7.80
2019-05-07T09:23:42.581Z,7.68
2019-05-07T09:26:14.199Z,7.42
2019-05-07T09:29:05.326Z,7.27
2019-05-07T09:31:53.763Z,7.16
2019-05-07T09:34:24.501Z,7.17
2019-05-07T09:36:55.700Z,7.17
2019-05-07T09:39:25.181Z,7.34
2019-05-07T09:41:54.671Z,7.52
2019-05-07T09:44:24.189Z,7.29
2019-05-07T09:46:53.680Z,7.18
2019-05-07T09:49:23.147Z,7.12
2019-05-07T09:51:52.614Z,7.23
2019-05-07T09:54:23.083Z,7.40
2019-05-07T09:56:52.662Z,7.39
2019-05-07T09:59:22.229Z,7.39
2019-05-07T10:01:51.943Z,7.38
2019-05-07T10:04:22.423Z,7.49
2019-05-07T10:06:52.036Z,7.49
2019-05-07T10:09:22.293Z,7.54
2019-05-07T10:12:12.182Z,7.58
2019-05-07T10:14:42.100Z,7.66
2019-05-07T10:17:17.377Z,7.67
2019-05-07T10:19:47.639Z,7.57
2019-05-07T10:22:17.109Z,7.54
2019-05-07T10:24:46.573Z,7.57
2019-05-07T10:27:16.185Z,7.59
2019-05-07T10:29:46.282Z,7.52
2019-05-07T10:32:15.752Z,7.55
2019-05-07T10:34:45.383Z,7.50
2019-05-07T10:37:14.887Z,7.49
2019-05-07T10:39:44.401Z,7.67
2019-05-07T10:42:13.890Z,7.68
2019-05-07T10:44:49.540Z,7.62
2019-05-07T10:47:44.016Z,7.53
2019-05-07T10:50:33.094Z,7.67
2019-05-07T10:52:52.811Z,7.67
2019-05-07T10:55:22.646Z,7.76
2019-05-07T10:57:52.837Z,7.74
2019-05-07T11:00:25.786Z,7.55
2019-05-07T11:02:55.306Z,7.52
2019-05-07T11:05:24.782Z,7.59
2019-05-07T11:07:54.412Z,7.62
2019-05-07T11:10:23.944Z,7.59
2019-05-07T11:12:53.432Z,7.49
2019-05-07T11:15:23.373Z,7.37
2019-05-07T11:18:02.719Z,7.42
2019-05-07T11:20:32.342Z,7.44
2019-05-07T11:23:02.609Z,7.31
2019-05-07T11:25:32.348Z,7.19
2019-05-07T11:28:02.827Z,7.20
2019-05-07T11:30:32.500Z,7.04
2019-05-07T11:33:02.734Z,6.87
2019-05-07T11:35:32.338Z,6.75
2019-05-07T11:38:16.782Z,6.77
2019-05-07T11:40:34.802Z,6.83
2019-05-07T11:43:23.662Z,6.69
2019-05-07T11:46:13.048Z,6.72
2019-05-07T11:48:52.244Z,6.68
2019-05-07T11:51:33.426Z,6.62
2019-05-07T11:54:13.651Z,6.63
2019-05-07T11:56:43.225Z,6.57
2019-05-07T11:59:13.575Z,6.65
2019-05-07T12:01:49.717Z,6.64
2019-05-07T12:04:19.392Z,6.56
2019-05-07T12:06:48.926Z,6.48
2019-05-07T12:09:18.468Z,6.51
2019-05-07T12:11:47.945Z,6.45
2019-05-07T12:14:28.150Z,6.50
2019-05-07T12:16:48.677Z,6.56
2019-05-07T12:19:18.192Z,6.51
2019-05-07T12:21:47.709Z,6.50
2019-05-07T12:24:17.269Z,6.51
2019-05-07T12:26:46.815Z,6.57
2019-05-07T12:29:16.322Z,6.71
2019-05-07T12:31:55.808Z,6.46
2019-05-07T12:34:50.102Z,6.28
2019-05-07T12:37:19.602Z,6.36
2019-05-07T12:39:49.125Z,6.40
2019-05-07T12:42:18.648Z,6.43
2019-05-07T12:44:48.178Z,6.47
2019-05-07T12:47:18.377Z,6.41
2019-05-07T12:49:47.939Z,6.49
2019-05-07T12:52:24.589Z,6.51
2019-05-07T12:55:12.000Z,6.45
2019-05-07T12:57:42.100Z,6.43
2019-05-07T13:00:32.190Z,6.34
2019-05-07T13:03:26.020Z,6.33
2019-05-07T13:05:55.573Z,6.33
2019-05-07T13:08:25.075Z,6.43
2019-05-07T13:10:54.555Z,6.46
2019-05-07T13:13:24.075Z,6.43
2019-05-07T13:15:53.552Z,6.41
2019-05-07T13:18:23.078Z,6.43
2019-05-07T13:20:52.623Z,6.40
2019-05-07T13:23:22.560Z,6.36
2019-05-07T13:25:52.504Z,6.39
2019-05-07T13:28:22.007Z,6.53
2019-05-07T13:30:52.622Z,6.60
2019-05-07T13:33:22.946Z,6.55
2019-05-07T13:35:53.201Z,6.55
2019-05-07T13:38:42.665Z,6.57
2019-05-07T13:41:31.207Z,6.58
2019-05-07T13:44:26.301Z,6.55
2019-05-07T13:47:15.140Z,6.54
2019-05-07T13:49:45.189Z,6.51
2019-05-07T13:52:16.189Z,6.48
2019-05-07T13:54:45.773Z,6.45
2019-05-07T13:57:15.560Z,6.33
2019-05-07T13:59:45.391Z,6.29
2019-05-07T14:02:17.549Z,6.36
2019-05-07T14:04:47.072Z,6.25
2019-05-07T14:07:16.977Z,6.25
2019-05-07T14:09:46.513Z,6.33
2019-05-07T14:12:16.216Z,6.34
2019-05-07T14:14:46.385Z,6.34
2019-05-07T14:17:15.888Z,6.45
2019-05-07T14:19:45.418Z,6.40
2019-05-07T14:22:18.852Z,6.31
2019-05-07T14:24:46.165Z,6.30
2019-05-07T14:27:15.799Z,6.26
2019-05-07T14:29:45.375Z,6.30
2019-05-07T14:32:24.043Z,6.36
2019-05-07T14:35:07.125Z,6.33
2019-05-07T14:37:42.697Z,6.35
2019-05-07T14:40:13.105Z,6.36
2019-05-07T14:42:47.320Z,6.33
2019-05-07T14:45:16.821Z,6.39
2019-05-07T14:47:46.469Z,6.39
2019-05-07T14:50:16.327Z,6.36
2019-05-07T14:52:45.920Z,6.30
2019-05-07T14:55:15.412Z,6.31
2019-05-07T14:57:44.949Z,6.34
2019-05-07T15:00:15.326Z,6.39
2019-05-07T15:02:44.802Z,6.30
2019-05-07T15:05:14.525Z,6.21
2019-05-07T15:07:44.134Z,6.26
2019-05-07T15:10:13.730Z,6.29
2019-05-07T15:12:43.458Z,6.32
2019-05-07T15:15:13.147Z,6.32
2019-05-07T15:17:48.720Z,6.39
2019-05-07T15:20:18.300Z,6.31
2019-05-07T15:23:11.944Z,6.36
2019-05-07T15:25:41.990Z,6.37
2019-05-07T15:28:12.270Z,6.28
2019-05-07T15:30:54.274Z,6.25
2019-05-07T15:33:23.932Z,6.30
2019-05-07T15:35:53.457Z,6.35
2019-05-07T15:38:22.938Z,6.43
2019-05-07T15:40:52.548Z,6.39
2019-05-07T15:43:22.131Z,6.41
2019-05-07T15:45:52.444Z,6.52
2019-05-07T15:48:22.138Z,6.57
2019-05-07T15:50:52.081Z,6.57
2019-05-07T15:53:25.987Z,6.68
2019-05-07T15:55:55.481Z,6.65
2019-05-07T15:58:25.004Z,6.68
2019-05-07T16:00:54.504Z,6.70
2019-05-07T16:03:32.795Z,6.78
2019-05-07T16:06:03.845Z,6.84
2019-05-07T16:08:36.907Z,6.89
2019-05-07T16:11:06.444Z,6.91
2019-05-07T16:13:38.349Z,6.87
2019-05-07T16:16:07.881Z,6.92
2019-05-07T16:18:56.303Z,6.93
2019-05-07T16:21:25.804Z,6.91
2019-05-07T16:23:55.365Z,6.91
2019-05-07T16:26:24.837Z,6.92
2019-05-07T16:28:54.340Z,6.86
2019-05-07T16:31:24.651Z,6.91
2019-05-07T16:33:54.431Z,6.92
2019-05-07T16:36:23.957Z,6.97
2019-05-07T16:38:53.452Z,6.99
2019-05-07T16:41:22.987Z,7.03
2019-05-07T16:43:52.544Z,7.00
2019-05-07T16:46:22.519Z,6.98
2019-05-07T16:48:52.156Z,6.97
2019-05-07T16:51:22.305Z,6.96
2019-05-07T16:53:52.534Z,6.98
2019-05-07T16:56:22.703Z,6.95
2019-05-07T16:59:02.311Z,6.92
2019-05-07T17:01:32.554Z,6.90
2019-05-07T17:04:02.863Z,6.84
2019-05-07T17:06:32.598Z,6.83
2019-05-07T17:09:10.253Z,6.88
2019-05-07T17:11:40.072Z,6.84
2019-05-07T17:14:09.601Z,6.81
2019-05-07T17:16:40.025Z,6.95
2019-05-07T17:19:11.837Z,6.93
2019-05-07T17:21:43.134Z,6.98
2019-05-07T17:24:12.779Z,6.88
2019-05-07T17:26:42.511Z,6.91
2019-05-07T17:29:12.180Z,6.93
2019-05-07T17:31:42.458Z,6.93
2019-05-07T17:34:12.210Z,6.93
2019-05-07T17:36:42.321Z,6.95
2019-05-07T17:39:12.353Z,6.94
2019-05-07T17:41:43.038Z,7.03
2019-05-07T17:44:12.640Z,7.04
2019-05-07T17:46:42.895Z,7.07
2019-05-07T17:49:13.407Z,7.06
2019-05-07T17:51:46.370Z,7.06
2019-05-07T17:54:15.883Z,7.11
2019-05-07T17:56:45.527Z,7.04
2019-05-07T17:59:15.059Z,7.02
2019-05-07T18:02:02.180Z,7.04
2019-05-07T18:04:47.650Z,7.04
2019-05-07T18:07:05.296Z,6.99
2019-05-07T18:09:36.884Z,7.08
2019-05-07T18:12:06.436Z,7.15
2019-05-07T18:14:36.305Z,7.16
2019-05-07T18:17:14.393Z,7.20
2019-05-07T18:19:45.674Z,7.20
2019-05-07T18:22:15.202Z,7.17
2019-05-07T18:24:46.829Z,7.24
2019-05-07T18:27:25.900Z,7.22
2019-05-07T18:29:55.380Z,7.20
2019-05-07T18:32:32.388Z,7.17
2019-05-07T18:35:02.429Z,7.23
2019-05-07T18:37:32.657Z,7.21
2019-05-07T18:40:02.629Z,7.22
2019-05-07T18:42:32.814Z,7.22
2019-05-07T18:45:02.320Z,7.25
2019-05-07T18:47:33.144Z,7.31
2019-05-07T18:50:04.433Z,7.22
2019-05-07T18:52:33.924Z,7.26
2019-05-07T18:55:03.418Z,7.29
2019-05-07T18:57:32.949Z,7.31
2019-05-07T19:00:05.180Z,7.28
2019-05-07T19:02:33.780Z,7.26
2019-05-07T19:05:03.448Z,7.31
2019-05-07T19:07:32.929Z,7.34
2019-05-07T19:10:02.805Z,7.33
2019-05-07T19:12:34.090Z,7.33
2019-05-07T19:15:03.859Z,7.37
2019-05-07T19:17:33.551Z,7.38
2019-05-07T19:20:03.493Z,7.36
2019-05-07T19:22:33.251Z,7.38
2019-05-07T19:25:03.181Z,7.36
2019-05-07T19:27:32.924Z,7.40
2019-05-07T19:30:02.478Z,7.38
2019-05-07T19:32:32.403Z,7.34
2019-05-07T19:35:04.302Z,7.39
2019-05-07T19:37:33.880Z,7.40
2019-05-07T19:40:03.398Z,7.38
2019-05-07T19:42:32.915Z,7.37
2019-05-07T19:45:02.767Z,7.39
2019-05-07T19:47:32.814Z,7.39
2019-05-07T19:50:02.444Z,7.33
2019-05-07T19:52:33.187Z,7.38
2019-05-07T19:55:04.856Z,7.42
2019-05-07T19:57:39.173Z,7.48
2019-05-07T20:00:09.292Z,7.42
2019-05-07T20:02:43.814Z,7.34
2019-05-07T20:05:13.427Z,7.33
2019-05-07T20:07:42.973Z,7.31
2019-05-07T20:10:14.494Z,7.24
2019-05-07T20:12:44.017Z,7.29
2019-05-07T20:15:13.828Z,7.26
2019-05-07T20:17:43.345Z,7.29
2019-05-07T20:20:13.715Z,7.20
2019-05-07T20:22:43.286Z,7.23
2019-05-07T20:25:18.780Z,7.25
2019-05-07T20:27:43.986Z,7.26
2019-05-07T20:30:13.486Z,7.24
2019-05-07T20:32:42.955Z,7.29
2019-05-07T20:35:13.265Z,7.28
2019-05-07T20:37:42.731Z,7.28
2019-05-07T20:40:12.501Z,7.33
2019-05-07T20:42:42.807Z,7.32
2019-05-07T20:45:12.481Z,7.31
2019-05-07T20:47:42.238Z,7.30
2019-05-07T20:50:12.715Z,7.33
2019-05-07T20:52:42.370Z,7.32
2019-05-07T20:55:30.848Z,7.34
2019-05-07T20:57:58.284Z,7.33
2019-05-07T21:00:28.669Z,7.29
2019-05-07T21:03:23.397Z,7.30
2019-05-07T21:05:53.231Z,7.32
2019-05-07T21:08:23.112Z,7.25
2019-05-07T21:10:53.759Z,7.30
2019-05-07T21:13:30.396Z,7.29
2019-05-07T21:15:54.854Z,7.31
2019-05-07T21:18:24.357Z,7.32
2019-05-07T21:20:53.871Z,7.41
2019-05-07T21:23:23.490Z,7.41
2019-05-07T21:25:53.280Z,7.35
2019-05-07T21:28:22.882Z,7.41
2019-05-07T21:30:52.503Z,7.37
2019-05-07T21:33:22.856Z,7.40
2019-05-07T21:35:52.660Z,7.39
2019-05-07T21:38:24.148Z,7.42
2019-05-07T21:40:53.694Z,7.39
2019-05-07T21:43:23.162Z,7.37
2019-05-07T21:45:53.120Z,7.34
2019-05-07T21:48:22.754Z,7.34
2019-05-07T21:50:52.617Z,7.39
2019-05-07T21:53:32.360Z,7.38
2019-05-07T21:56:16.256Z,7.34
2019-05-07T21:58:53.924Z,7.40
2019-05-07T22:01:32.579Z,7.38
2019-05-07T22:04:01.973Z,7.38
2019-05-07T22:06:31.681Z,7.41
2019-05-07T22:09:01.984Z,7.41
2019-05-07T22:11:32.325Z,7.44
2019-05-07T22:14:02.236Z,7.46
2019-05-07T22:16:32.877Z,7.46
2019-05-07T22:19:02.737Z,7.51
2019-05-07T22:21:34.303Z,7.47
2019-05-07T22:24:03.604Z,7.46
2019-05-07T22:26:33.079Z,7.47
2019-05-07T22:29:03.207Z,7.47
2019-05-07T22:31:44.244Z,7.44
2019-05-07T22:34:27.712Z,7.42
2019-05-07T22:36:57.211Z,7.38
2019-05-07T22:39:26.889Z,7.41
2019-05-07T22:41:56.408Z,7.35
2019-05-07T22:44:26.472Z,7.34
2019-05-07T22:46:57.986Z,7.33
2019-05-07T22:49:27.452Z,7.36
2019-05-07T22:51:56.921Z,7.33
2019-05-07T22:54:26.466Z,7.30
2019-05-07T22:57:14.613Z,7.35
2019-05-07T22:59:44.073Z,7.31
2019-05-07T23:02:13.572Z,7.27
2019-05-07T23:04:43.269Z,7.27
2019-05-07T23:07:12.883Z,7.25
2019-05-07T23:09:44.867Z,7.22
2019-05-07T23:12:13.629Z,7.26
2019-05-07T23:14:43.095Z,7.23
2019-05-07T23:17:12.711Z,7.29
2019-05-07T23:19:42.177Z,7.29
2019-05-07T23:22:13.535Z,7.22
2019-05-07T23:24:42.926Z,7.20
2019-05-07T23:27:14.794Z,7.23
2019-05-07T23:29:43.966Z,7.22
2019-05-07T23:32:13.811Z,7.15
2019-05-07T23:34:43.295Z,7.17
2019-05-07T23:37:12.795Z,7.17
2019-05-07T23:39:43.948Z,7.14
2019-05-07T23:42:17.295Z,7.19
2019-05-07T23:44:46.786Z,7.20
2019-05-07T23:47:16.284Z,7.19
2019-05-07T23:49:45.794Z,7.18
2019-05-07T23:52:15.289Z,7.18
2019-05-07T23:54:44.792Z,7.20
2019-05-07T23:57:15.427Z,7.25
2019-05-07T23:59:45.049Z,7.26
